Time;durP1;ratioP1;P1;durP2;ratioP2;P2;SDS_P1;SDS_P2;PMS_P1;PMS_P2;Temp;Humidity;BMP_temperature;BMP_pressure;BME280_temperature;BME280_humidity;BME280_pressure;Samples;Min_cycle;Max_cycle;Signal;HPM_P1;HPM_P2
2022/05/10 00:01:25;;;;;;;8.87;7.97;;;17.20;80.60;;;;;;7373680;19;21104;-47
2022/05/10 00:04:01;;;;;;;10.03;8.47;;;17.00;81.40;;;;;;7377766;19;20708;-48
2022/05/10 00:06:37;;;;;;;9.63;8.73;;;17.10;82.00;;;;;;7370851;19;20894;-47
2022/05/10 00:09:10;;;;;;;14.73;8.87;;;17.10;81.60;;;;;;7374228;19;20388;-47
2022/05/10 00:11:40;;;;;;;8.77;7.97;;;17.10;81.60;;;;;;7369607;19;20373;-48
2022/05/10 00:14:12;;;;;;;9.20;8.00;;;17.00;82.00;;;;;;7371409;19;21006;-47
2022/05/10 00:16:44;;;;;;;9.77;8.40;;;16.90;82.50;;;;;;7378532;19;20380;-47
2022/05/10 00:19:18;;;;;;;8.73;7.93;;;17.00;82.30;;;;;;7371943;19;20957;-48
2022/05/10 00:21:49;;;;;;;10.97;8.50;;;16.90;82.70;;;;;;7374872;19;20372;-48
2022/05/10 00:24:20;;;;;;;9.73;8.60;;;16.90;82.40;;;;;;7373519;19;20464;-47
2022/05/10 00:30:36;;;;;;;10.30;9.17;;;16.70;83.50;;;;;;7368363;19;20519;-47
2022/05/10 00:33:09;;;;;;;9.83;8.80;;;16.60;84.50;;;;;;7365576;19;20420;-48
2022/05/10 00:35:43;;;;;;;9.87;8.93;;;16.70;83.70;;;;;;7376713;19;20403;-47
2022/05/10 00:38:15;;;;;;;11.63;8.90;;;16.70;83.90;;;;;;7373356;19;20372;-47
2022/05/10 00:40:44;;;;;;;9.23;8.30;;;16.60;84.80;;;;;;7376521;19;20882;-47
2022/05/10 00:43:21;;;;;;;9.47;8.60;;;16.60;84.70;;;;;;7373719;19;20368;-48
2022/05/10 00:45:57;;;;;;;9.50;8.60;;;16.40;85.90;;;;;;7374647;19;20376;-47
2022/05/10 00:48:36;;;;;;;9.90;9.00;;;16.50;85.20;;;;;;7369378;19;20781;-47
2022/05/10 00:51:18;;;;;;;10.57;9.10;;;16.40;86.40;;;;;;7373467;19;20455;-38
2022/05/10 00:54:01;;;;;;;9.20;8.30;;;16.20;87.30;;;;;;7374123;19;20364;-39
2022/05/10 00:56:37;;;;;;;9.70;8.80;;;16.30;86.50;;;;;;7375271;19;20849;-39
2022/05/10 00:59:14;;;;;;;10.63;9.53;;;16.30;86.30;;;;;;7362289;19;20898;-39
2022/05/10 01:01:47;;;;;;;10.37;9.33;;;16.50;85.90;;;;;;7368461;19;20448;-39
2022/05/10 01:04:26;;;;;;;15.37;9.60;;;16.40;86.00;;;;;;7374135;19;20813;-39
2022/05/10 01:07:11;;;;;;;10.97;9.87;;;16.40;86.20;;;;;;7375047;19;20396;-39
2022/05/10 01:09:47;;;;;;;10.83;9.73;;;16.50;85.90;;;;;;7370619;19;20388;-39
2022/05/10 01:12:24;;;;;;;9.90;9.00;;;16.60;85.40;;;;;;7372967;19;20934;-39
2022/05/10 01:14:59;;;;;;;10.30;9.30;;;16.60;85.20;;;;;;7366696;19;20387;-38
2022/05/10 01:17:29;;;;;;;10.73;9.63;;;16.40;85.80;;;;;;7367561;19;20418;-38
2022/05/10 01:19:59;;;;;;;12.87;10.60;;;16.30;87.10;;;;;;7373526;19;20372;-47
2022/05/10 01:22:53;;;;;;;12.87;9.90;;;16.20;87.50;;;;;;7377566;19;20388;-47
2022/05/10 01:25:42;;;;;;;10.43;9.33;;;16.20;88.00;;;;;;7373189;19;20368;-47
2022/05/10 01:28:30;;;;;;;11.83;9.70;;;16.20;88.10;;;;;;7376491;19;20521;-47
2022/05/10 01:31:06;;;;;;;9.47;8.57;;;16.10;89.10;;;;;;7367938;19;20408;-46
2022/05/10 01:33:41;;;;;;;10.40;9.37;;;15.90;90.00;;;;;;7374154;19;20368;-48
2022/05/10 01:36:30;;;;;;;11.30;10.00;;;15.90;90.00;;;;;;7368939;19;20986;-47
2022/05/10 01:39:06;;;;;;;11.97;9.10;;;16.00;90.10;;;;;;7374644;19;20439;-48
2022/05/10 01:41:46;;;;;;;10.60;9.57;;;16.00;90.00;;;;;;7372326;19;20380;-48
2022/05/10 01:44:32;;;;;;;9.87;8.87;;;16.10;89.90;;;;;;7375537;19;20400;-48
2022/05/10 01:47:09;;;;;;;11.10;10.00;;;16.10;89.70;;;;;;7372321;19;20372;-47
2022/05/10 01:49:45;;;;;;;11.90;10.40;;;16.00;90.10;;;;;;7370048;19;20804;-47
2022/05/10 01:52:21;;;;;;;10.77;9.70;;;16.00;90.00;;;;;;7372085;19;20388;-47
2022/05/10 01:55:04;;;;;;;10.40;9.30;;;16.10;90.10;;;;;;7370195;19;20408;-47
2022/05/10 01:57:38;;;;;;;11.93;10.10;;;16.00;90.00;;;;;;7376062;19;20402;-47
2022/05/10 02:00:18;;;;;;;11.90;9.63;;;16.00;90.10;;;;;;7377280;19;20405;-47
2022/05/10 02:02:54;;;;;;;10.07;9.17;;;16.20;89.40;;;;;;7375710;19;20416;-47
2022/05/10 02:05:34;;;;;;;10.57;9.50;;;16.20;89.50;;;;;;7379848;19;20361;-47
2022/05/10 02:08:14;;;;;;;11.00;9.23;;;16.10;89.60;;;;;;7380710;19;20423;-47
2022/05/10 02:10:49;;;;;;;10.73;9.63;;;15.90;90.10;;;;;;7381930;19;20818;-47
2022/05/10 02:13:26;;;;;;;10.67;9.30;;;15.90;90.30;;;;;;7378018;19;20410;-48
2022/05/10 02:16:02;;;;;;;9.60;8.60;;;15.90;90.50;;;;;;7377821;19;20373;-47
2022/05/10 02:18:41;;;;;;;10.50;9.50;;;15.60;91.20;;;;;;7382250;19;20414;-48
2022/05/10 02:21:19;;;;;;;10.07;9.07;;;15.50;91.50;;;;;;7382260;19;20426;-47
2022/05/10 02:23:56;;;;;;;12.40;9.50;;;15.40;92.00;;;;;;7378976;19;20391;-48
2022/05/10 02:26:32;;;;;;;9.93;8.83;;;15.40;92.00;;;;;;7378101;19;20375;-47
2022/05/10 02:29:11;;;;;;;10.73;9.73;;;15.60;91.60;;;;;;7381041;19;20372;-47
2022/05/10 02:34:35;;;;;;;10.33;9.43;;;15.50;91.30;;;;;;7378810;19;20372;-48
2022/05/10 02:37:08;;;;;;;12.37;9.73;;;15.60;90.90;;;;;;7380348;19;20388;-47
2022/05/10 02:39:38;;;;;;;10.57;9.53;;;15.50;91.70;;;;;;7377236;19;20371;-48
2022/05/10 02:42:13;;;;;;;10.63;9.63;;;15.40;92.00;;;;;;7381223;19;20479;-46
2022/05/10 02:44:45;;;;;;;12.20;10.67;;;15.30;92.40;;;;;;7379494;19;20376;-47
2022/05/10 02:47:31;;;;;;;12.97;10.37;;;15.30;92.30;;;;;;7374116;19;20380;-47
2022/05/10 02:50:03;;;;;;;10.83;9.73;;;15.40;92.10;;;;;;7373938;19;20468;-47
2022/05/10 02:52:33;;;;;;;10.97;9.70;;;15.40;92.30;;;;;;7372807;19;20384;-49
2022/05/10 02:55:10;;;;;;;13.17;10.80;;;15.30;92.50;;;;;;7380072;19;20388;-47
2022/05/10 02:57:40;;;;;;;11.27;10.10;;;15.20;92.70;;;;;;7380912;19;20413;-47
2022/05/10 03:00:11;;;;;;;13.17;11.73;;;15.30;92.60;;;;;;7375950;19;20400;-48
2022/05/10 03:02:46;;;;;;;10.50;9.60;;;15.30;92.70;;;;;;7377659;19;20392;-49
2022/05/10 03:05:16;;;;;;;10.30;9.20;;;15.40;92.60;;;;;;7373498;19;20414;-48
2022/05/10 03:07:48;;;;;;;11.27;10.03;;;15.20;92.80;;;;;;7380526;19;20376;-49
2022/05/10 03:10:22;;;;;;;11.50;10.30;;;15.20;92.80;;;;;;7379873;19;20376;-48
2022/05/10 03:12:54;;;;;;;11.80;9.87;;;15.30;92.80;;;;;;7377061;19;20372;-48
2022/05/10 03:15:23;;;;;;;10.97;9.33;;;15.20;93.20;;;;;;7377948;19;20385;-49
2022/05/10 03:17:59;;;;;;;11.63;10.00;;;15.20;93.50;;;;;;7374603;19;20380;-48
2022/05/10 03:20:29;;;;;;;15.03;11.47;;;15.20;93.40;;;;;;7379637;19;20789;-49
2022/05/10 03:22:58;;;;;;;12.13;10.30;;;15.00;93.90;;;;;;7381036;19;20664;-48
2022/05/10 03:25:31;;;;;;;10.83;9.73;;;15.10;94.00;;;;;;7378125;19;21463;-49
2022/05/10 03:28:01;;;;;;;11.40;9.33;;;15.00;93.70;;;;;;7375477;19;20395;-48
2022/05/10 03:30:33;;;;;;;12.57;10.30;;;15.00;93.90;;;;;;7376873;19;20910;-49
2022/05/10 03:33:06;;;;;;;12.00;10.23;;;15.00;94.00;;;;;;7374180;19;20413;-48
2022/05/10 03:35:37;;;;;;;12.60;11.30;;;15.00;93.80;;;;;;7380645;19;20403;-49
2022/05/10 03:38:07;;;;;;;11.20;9.97;;;15.20;93.50;;;;;;7372899;19;20520;-48
2022/05/10 03:40:39;;;;;;;11.27;10.17;;;15.20;93.50;;;;;;7376516;19;20379;-49
2022/05/10 03:43:11;;;;;;;12.20;10.70;;;15.30;93.20;;;;;;7373940;19;20477;-47
2022/05/10 03:45:40;;;;;;;11.50;10.23;;;15.40;93.00;;;;;;7371985;19;20894;-50
2022/05/10 03:48:14;;;;;;;11.23;10.13;;;15.30;93.00;;;;;;7373938;19;20458;-48
2022/05/10 03:50:44;;;;;;;11.20;10.10;;;15.30;93.20;;;;;;7379705;19;20411;-49
2022/05/10 03:53:18;;;;;;;11.83;10.50;;;15.20;93.20;;;;;;7377300;19;20388;-49
2022/05/10 03:55:47;;;;;;;12.17;10.23;;;15.10;93.40;;;;;;7377638;19;20416;-49
2022/05/10 03:58:17;;;;;;;13.50;10.73;;;15.10;93.60;;;;;;7376946;19;20380;-48
2022/05/10 04:00:48;;;;;;;10.67;9.67;;;15.00;93.80;;;;;;7374931;19;20425;-50
2022/05/10 04:03:20;;;;;;;11.40;9.80;;;15.00;94.20;;;;;;7373157;19;20997;-50
2022/05/10 04:05:52;;;;;;;12.17;10.87;;;14.80;94.50;;;;;;7375329;19;20521;-48
2022/05/10 04:08:23;;;;;;;10.37;9.30;;;14.80;95.10;;;;;;7378489;19;20369;-48
2022/05/10 04:10:53;;;;;;;11.03;9.80;;;14.90;94.70;;;;;;7367129;19;21084;-48
2022/05/10 04:13:23;;;;;;;10.50;9.50;;;14.80;94.80;;;;;;7372167;19;21382;-48
2022/05/10 04:15:52;;;;;;;12.43;10.57;;;14.90;94.70;;;;;;7379015;19;20376;-48
2022/05/10 04:18:27;;;;;;;11.70;10.60;;;14.90;95.20;;;;;;7373173;19;20412;-50
2022/05/10 04:21:02;;;;;;;11.97;10.33;;;15.00;94.80;;;;;;7374716;19;20368;-49
2022/05/10 04:23:34;;;;;;;13.37;11.50;;;15.00;94.50;;;;;;7373337;19;20819;-50
2022/05/10 04:26:11;;;;;;;10.83;9.73;;;14.90;95.00;;;;;;7375216;19;20391;-49
2022/05/10 04:28:44;;;;;;;13.53;10.30;;;15.00;95.00;;;;;;7370912;19;20374;-49
2022/05/10 04:31:14;;;;;;;14.43;10.77;;;15.10;94.70;;;;;;7365526;19;20934;-50
2022/05/10 04:33:49;;;;;;;12.60;11.30;;;15.10;94.50;;;;;;7369204;19;20374;-48
2022/05/10 04:36:22;;;;;;;12.00;10.80;;;15.10;94.90;;;;;;7372239;19;20368;-49
2022/05/10 04:38:55;;;;;;;12.50;11.20;;;15.10;94.90;;;;;;7376177;19;20364;-50
2022/05/10 04:41:27;;;;;;;13.53;10.77;;;15.10;95.00;;;;;;7372129;19;20918;-47
2022/05/10 04:44:00;;;;;;;11.63;10.50;;;15.00;95.40;;;;;;7378083;19;20921;-48
2022/05/10 04:46:31;;;;;;;13.17;11.83;;;15.00;95.70;;;;;;7370741;19;20477;-50
2022/05/10 04:49:03;;;;;;;11.13;9.73;;;15.00;95.60;;;;;;7374129;19;20484;-49
2022/05/10 04:51:32;;;;;;;13.30;11.67;;;15.10;95.40;;;;;;7373694;19;20386;-49
2022/05/10 04:54:02;;;;;;;17.77;12.23;;;15.30;95.00;;;;;;7377555;19;20454;-53
2022/05/10 04:56:34;;;;;;;15.20;12.20;;;15.40;94.80;;;;;;7377537;19;20372;-48
2022/05/10 04:59:03;;;;;;;16.07;12.00;;;15.30;95.00;;;;;;7373773;19;20435;-49
2022/05/10 05:01:33;;;;;;;14.00;12.43;;;15.30;95.20;;;;;;7367358;19;20427;-49
2022/05/10 05:04:07;;;;;;;14.13;12.23;;;15.50;94.70;;;;;;7372046;19;20396;-48
2022/05/10 05:06:39;;;;;;;15.90;12.60;;;15.50;94.80;;;;;;7367904;19;20392;-48
2022/05/10 05:09:09;;;;;;;12.97;11.57;;;15.50;94.90;;;;;;7375063;19;20775;-49
2022/05/10 05:11:39;;;;;;;13.60;11.80;;;15.60;94.60;;;;;;7370430;19;20737;-47
2022/05/10 05:14:11;;;;;;;17.07;12.23;;;15.30;95.10;;;;;;7371314;19;21009;-46
2022/05/10 05:16:41;;;;;;;14.20;11.83;;;15.00;96.20;;;;;;7370596;19;20390;-46
2022/05/10 05:19:15;;;;;;;13.57;12.00;;;15.00;96.60;;;;;;7376366;19;20372;-46
2022/05/10 05:21:45;;;;;;;14.77;13.10;;;15.10;96.70;;;;;;7376931;19;20372;-46
2022/05/10 05:24:16;;;;;;;12.47;11.17;;;14.90;96.70;;;;;;7374588;19;20368;-46
2022/05/10 05:26:52;;;;;;;15.47;11.77;;;14.80;97.00;;;;;;7375489;19;20379;-46
2022/05/10 05:29:25;;;;;;;13.10;11.70;;;14.80;96.80;;;;;;7376455;19;20376;-46
2022/05/10 05:31:56;;;;;;;14.40;12.30;;;15.00;96.60;;;;;;7382171;19;20396;-46
2022/05/10 05:34:29;;;;;;;14.20;12.37;;;15.00;96.60;;;;;;7386654;19;20906;-46
2022/05/10 05:39:42;;;;;;;13.50;11.83;;;15.60;95.60;;;;;;7381830;19;20431;-47
2022/05/10 05:42:12;;;;;;;14.30;12.80;;;15.80;94.60;;;;;;7381901;19;20451;-46
2022/05/10 05:44:47;;;;;;;14.60;11.80;;;15.80;93.80;;;;;;7384986;19;20864;-46
2022/05/10 05:47:17;;;;;;;11.80;10.70;;;16.10;92.80;;;;;;7380402;19;20432;-46
2022/05/10 05:49:51;;;;;;;12.57;11.33;;;16.50;91.60;;;;;;7376725;19;20460;-46
2022/05/10 05:52:22;;;;;;;13.00;11.70;;;16.60;90.80;;;;;;7378549;19;20376;-46
2022/05/10 05:54:51;;;;;;;15.20;12.97;;;16.70;90.40;;;;;;7383013;19;20380;-46
2022/05/10 05:57:24;;;;;;;12.67;10.87;;;16.70;90.50;;;;;;7381220;19;21403;-47
2022/05/10 05:59:58;;;;;;;17.03;12.30;;;16.80;90.30;;;;;;7380021;19;20941;-46
2022/05/10 06:02:29;;;;;;;13.60;11.90;;;16.90;89.60;;;;;;7380360;19;20398;-46
2022/05/10 06:05:01;;;;;;;13.43;12.03;;;17.00;88.40;;;;;;7379771;19;20360;-46
2022/05/10 06:07:34;;;;;;;12.80;11.13;;;16.90;88.70;;;;;;7380074;19;20409;-46
2022/05/10 06:10:11;;;;;;;12.47;11.17;;;17.10;88.80;;;;;;7384614;19;20957;-48
2022/05/10 06:12:41;;;;;;;12.33;10.83;;;17.20;88.10;;;;;;7383836;19;20407;-46
2022/05/10 06:15:17;;;;;;;12.80;11.27;;;17.60;88.00;;;;;;7385631;19;20434;-43
2022/05/10 06:17:51;;;;;;;13.40;11.80;;;17.60;87.70;;;;;;7380315;19;20395;-46
2022/05/10 06:20:26;;;;;;;16.00;12.73;;;17.80;88.00;;;;;;7378456;19;20400;-43
2022/05/10 06:22:58;;;;;;;12.30;11.10;;;17.90;85.90;;;;;;7382665;19;20454;-43
2022/05/10 06:25:28;;;;;;;14.60;12.50;;;18.00;86.50;;;;;;7384662;19;20386;-46
2022/05/10 06:27:58;;;;;;;16.90;13.50;;;18.00;84.50;;;;;;7384629;19;20465;-46
2022/05/10 06:30:29;;;;;;;14.50;12.50;;;17.90;85.00;;;;;;7379269;19;20376;-45
2022/05/10 06:33:04;;;;;;;13.07;11.77;;;18.10;85.60;;;;;;7382615;19;20455;-46
2022/05/10 06:35:39;;;;;;;15.30;12.90;;;18.20;85.60;;;;;;7384138;19;20376;-43
2022/05/10 06:38:27;;;;;;;14.90;12.80;;;18.20;83.20;;;;;;7381705;19;20408;-44
2022/05/10 06:41:04;;;;;;;13.57;11.40;;;18.40;85.40;;;;;;7380541;19;20371;-48
2022/05/10 06:43:36;;;;;;;14.07;12.13;;;18.70;82.90;;;;;;7384152;19;20388;-46
2022/05/10 06:46:12;;;;;;;13.97;12.50;;;19.00;79.20;;;;;;7379023;19;20451;-46
2022/05/10 06:48:45;;;;;;;13.00;11.60;;;19.20;77.60;;;;;;7382293;19;20530;-48
2022/05/10 06:51:22;;;;;;;13.97;12.47;;;19.40;78.30;;;;;;7380309;19;20375;-43
2022/05/10 06:53:54;;;;;;;14.70;11.00;;;19.50;78.30;;;;;;7377027;19;20874;-44
2022/05/10 06:56:25;;;;;;;15.10;10.97;;;19.60;80.40;;;;;;7382196;19;20391;-46
2022/05/10 06:58:54;;;;;;;12.63;11.30;;;20.00;87.70;;;;;;7381244;19;20954;-46
2022/05/10 07:01:26;;;;;;;15.73;11.03;;;20.10;78.80;;;;;;7374877;19;20376;-47
2022/05/10 07:03:55;;;;;;;12.87;10.93;;;20.30;79.70;;;;;;7381149;19;21018;-45
2022/05/10 07:06:30;;;;;;;13.80;10.30;;;20.50;72.50;;;;;;7376770;19;20396;-44
2022/05/10 07:08:59;;;;;;;15.67;10.77;;;20.60;73.20;;;;;;7381862;19;20819;-46
2022/05/10 07:11:28;;;;;;;12.10;10.90;;;20.70;71.80;;;;;;7379799;19;20898;-45
2022/05/10 07:14:03;;;;;;;11.37;9.23;;;20.80;69.90;;;;;;7375720;19;20410;-46
2022/05/10 07:16:32;;;;;;;10.73;9.63;;;20.70;67.90;;;;;;7375520;19;20476;-46
2022/05/10 07:19:03;;;;;;;10.27;9.00;;;20.80;68.80;;;;;;7382340;19;20377;-45
2022/05/10 07:21:36;;;;;;;10.83;9.67;;;21.00;66.90;;;;;;7378272;19;20376;-44
2022/05/10 07:24:08;;;;;;;8.23;7.47;;;21.20;67.30;;;;;;7377671;19;20372;-45
2022/05/10 07:26:43;;;;;;;7.87;7.17;;;21.40;64.10;;;;;;7376652;19;20364;-45
2022/05/10 07:29:13;;;;;;;9.23;8.00;;;21.50;63.00;;;;;;7380469;19;20393;-45
2022/05/10 07:31:46;;;;;;;9.60;7.43;;;21.70;70.80;;;;;;7376585;19;20395;-45
2022/05/10 07:34:20;;;;;;;7.77;7.07;;;21.40;68.00;;;;;;7377990;19;20400;-44
2022/05/10 07:36:52;;;;;;;9.33;7.23;;;21.60;74.60;;;;;;7376002;19;20382;-44
2022/05/10 07:39:23;;;;;;;8.47;7.67;;;21.80;60.90;;;;;;7380490;19;20413;-44
2022/05/10 07:41:53;;;;;;;7.27;6.53;;;22.00;60.70;;;;;;7382445;19;20380;-44
2022/05/10 07:44:24;;;;;;;8.37;7.57;;;22.20;60.00;;;;;;7381395;19;20376;-44
2022/05/10 07:46:57;;;;;;;7.60;6.90;;;22.50;59.40;;;;;;7378130;19;20414;-44
2022/05/10 07:49:33;;;;;;;7.60;6.83;;;22.60;59.90;;;;;;7376851;19;20538;-45
2022/05/10 07:52:06;;;;;;;11.03;7.30;;;22.80;58.80;;;;;;7379101;19;20993;-45
2022/05/10 07:54:38;;;;;;;8.07;7.17;;;23.00;57.80;;;;;;7378883;19;20371;-44
2022/05/10 07:57:08;;;;;;;7.43;6.60;;;23.20;57.20;;;;;;7377247;19;20380;-44
2022/05/10 07:59:37;;;;;;;6.63;6.03;;;23.30;56.40;;;;;;7381870;19;20388;-45
2022/05/10 08:02:10;;;;;;;5.90;5.10;;;23.50;55.70;;;;;;7379052;19;20372;-45
2022/05/10 08:04:39;;;;;;;7.50;6.07;;;23.60;55.20;;;;;;7379799;19;20368;-45
2022/05/10 08:07:11;;;;;;;7.00;6.30;;;23.70;54.70;;;;;;7379130;19;20402;-44
2022/05/10 08:09:41;;;;;;;6.60;6.00;;;23.90;54.40;;;;;;7378335;19;20655;-44
2022/05/10 08:12:11;;;;;;;6.40;5.80;;;24.10;52.90;;;;;;7380394;19;20372;-44
2022/05/10 08:14:43;;;;;;;7.00;6.17;;;24.10;52.50;;;;;;7379986;19;20384;-44
2022/05/10 08:17:13;;;;;;;6.47;5.80;;;24.20;51.80;;;;;;7379109;19;20365;-45
2022/05/10 08:19:50;;;;;;;8.30;6.10;;;24.40;51.70;;;;;;7381254;19;20999;-46
2022/05/10 08:22:22;;;;;;;7.13;6.33;;;24.40;52.00;;;;;;7380507;19;20372;-46
2022/05/10 08:24:52;;;;;;;5.93;5.37;;;24.60;51.10;;;;;;7376835;19;20797;-46
2022/05/10 08:27:23;;;;;;;6.00;5.47;;;24.70;51.40;;;;;;7373134;19;20384;-45
2022/05/10 08:29:54;;;;;;;5.50;5.00;;;24.60;51.10;;;;;;7381209;19;20802;-48
2022/05/10 08:32:26;;;;;;;6.00;5.37;;;24.80;50.80;;;;;;7374360;19;20376;-45
2022/05/10 08:34:57;;;;;;;9.90;6.73;;;25.00;50.90;;;;;;7379088;19;20969;-48
2022/05/10 08:37:31;;;;;;;6.80;6.13;;;25.30;50.30;;;;;;7372686;19;21137;-47
2022/05/10 08:40:03;;;;;;;6.07;5.57;;;25.40;49.00;;;;;;7380516;19;20413;-45
2022/05/10 08:42:42;;;;;;;6.90;6.20;;;25.50;48.90;;;;;;7378859;19;20372;-46
2022/05/10 08:45:14;;;;;;;5.73;5.23;;;25.70;49.30;;;;;;7379754;19;20395;-45
2022/05/10 08:47:46;;;;;;;6.63;6.00;;;25.90;48.70;;;;;;7374215;19;20368;-46
2022/05/10 08:50:17;;;;;;;6.03;5.50;;;26.10;48.10;;;;;;7376808;19;20423;-46
2022/05/10 08:52:51;;;;;;;6.27;5.70;;;26.20;48.20;;;;;;7377334;19;20504;-45
2022/05/10 08:55:28;;;;;;;5.53;5.03;;;26.40;47.80;;;;;;7378597;19;20386;-44
2022/05/10 08:58:07;;;;;;;7.20;6.50;;;26.50;47.10;;;;;;7378858;19;20387;-45
2022/05/10 09:00:43;;;;;;;6.27;5.67;;;26.60;45.60;;;;;;7380254;19;20812;-44
2022/05/10 09:03:36;;;;;;;6.60;5.90;;;26.80;46.40;;;;;;7377885;19;20379;-45
2022/05/10 09:06:17;;;;;;;5.30;4.77;;;27.10;45.10;;;;;;7376928;19;20427;-45
2022/05/10 09:09:04;;;;;;;6.60;5.80;;;27.30;44.70;;;;;;7376630;19;20376;-45
2022/05/10 09:11:44;;;;;;;6.70;6.07;;;27.60;44.00;;;;;;7379093;19;20380;-44
2022/05/10 09:14:17;;;;;;;7.20;6.60;;;27.90;43.40;;;;;;7378338;19;20384;-45
2022/05/10 09:16:46;;;;;;;4.63;4.30;;;28.00;42.30;;;;;;7377439;19;20412;-46
2022/05/10 09:19:21;;;;;;;8.00;5.77;;;28.10;42.50;;;;;;7379027;19;21000;-46
2022/05/10 09:21:57;;;;;;;5.43;5.00;;;28.30;41.20;;;;;;7377079;19;20394;-44
2022/05/10 09:24:35;;;;;;;8.40;5.60;;;28.50;41.30;;;;;;7379468;19;20478;-45
2022/05/10 09:27:09;;;;;;;5.20;4.70;;;28.80;38.20;;;;;;7376673;19;20364;-46
2022/05/10 09:29:49;;;;;;;5.13;4.63;;;29.00;38.40;;;;;;7378964;19;20890;-45
2022/05/10 09:35:12;;;;;;;6.90;5.63;;;28.80;37.80;;;;;;7372240;19;20397;-44
2022/05/10 09:37:47;;;;;;;7.47;4.57;;;29.20;37.70;;;;;;7379160;19;20433;-44
2022/05/10 09:40:46;;;;;;;4.90;4.40;;;29.90;37.20;;;;;;7374778;19;20467;-37
2022/05/10 09:43:26;;;;;;;6.47;5.70;;;30.00;36.10;;;;;;7377007;19;20376;-37
2022/05/10 09:46:11;;;;;;;5.33;4.87;;;29.90;35.90;;;;;;7377353;19;20364;-39
2022/05/10 09:48:42;;;;;;;5.27;4.50;;;30.30;35.60;;;;;;7373800;19;20834;-39
2022/05/10 09:51:28;;;;;;;5.30;4.90;;;30.50;35.10;;;;;;7373975;19;20780;-39
2022/05/10 09:53:59;;;;;;;5.63;5.20;;;30.60;34.00;;;;;;7374093;19;20921;-38
2022/05/10 09:56:38;;;;;;;4.90;4.50;;;30.50;34.50;;;;;;7373577;19;20662;-36
2022/05/10 09:59:15;;;;;;;4.37;3.97;;;29.70;32.90;;;;;;7376948;19;20459;-38
2022/05/10 10:01:50;;;;;;;5.70;4.63;;;29.90;33.30;;;;;;7373356;19;20376;-38
2022/05/10 10:04:23;;;;;;;5.13;4.73;;;30.40;32.40;;;;;;7375746;19;20375;-38
2022/05/10 10:07:10;;;;;;;7.57;4.80;;;30.80;31.70;;;;;;7374323;19;20380;-38
2022/05/10 10:09:41;;;;;;;4.70;4.30;;;31.10;32.90;;;;;;7377181;19;20379;-45
2022/05/10 10:12:30;;;;;;;5.90;5.30;;;31.50;32.20;;;;;;7374620;19;20914;-46
2022/05/10 10:15:03;;;;;;;4.63;4.33;;;31.70;32.40;;;;;;7375935;19;20380;-46
2022/05/10 10:17:36;;;;;;;4.17;3.77;;;31.50;32.40;;;;;;7380116;19;20451;-47
2022/05/10 10:20:28;;;;;;;4.37;4.07;;;32.10;32.20;;;;;;7384040;19;20719;-44
2022/05/10 10:23:05;;;;;;;4.97;4.57;;;32.80;31.10;;;;;;7382785;19;21153;-46
2022/05/10 10:25:41;;;;;;;5.23;4.70;;;32.30;30.10;;;;;;7372173;19;20406;-47
2022/05/10 10:28:24;;;;;;;5.33;4.83;;;31.90;30.80;;;;;;7375357;19;21032;-46
2022/05/10 10:31:00;;;;;;;4.80;4.40;;;32.20;30.40;;;;;;7374004;19;20387;-46
2022/05/10 10:33:37;;;;;;;6.20;5.23;;;31.40;31.70;;;;;;7377193;19;20904;-44
2022/05/10 10:36:14;;;;;;;4.90;4.40;;;31.10;29.70;;;;;;7379177;19;20371;-45
2022/05/10 10:39:01;;;;;;;4.60;4.20;;;30.90;31.40;;;;;;7381093;19;20388;-43
2022/05/10 10:41:37;;;;;;;4.27;3.97;;;30.40;31.00;;;;;;7382583;19;20369;-47
2022/05/10 10:44:17;;;;;;;5.67;4.30;;;31.20;30.80;;;;;;7381243;19;20644;-46
2022/05/10 10:47:02;;;;;;;4.63;4.23;;;32.50;29.30;;;;;;7383055;19;20473;-46
2022/05/10 10:49:38;;;;;;;7.20;4.20;;;32.30;28.20;;;;;;7379215;19;21084;-45
2022/05/10 10:52:08;;;;;;;5.10;4.50;;;33.40;28.30;;;;;;7383057;19;20970;-45
2022/05/10 10:54:39;;;;;;;4.40;4.00;;;33.50;28.00;;;;;;7381328;19;20372;-44
2022/05/10 10:57:40;;;;;;;5.00;4.60;;;32.70;28.60;;;;;;7381431;19;20372;-45
2022/05/10 11:00:20;;;;;;;5.40;4.90;;;32.50;28.80;;;;;;7383481;19;20446;-44
2022/05/10 11:03:17;;;;;;;5.03;4.63;;;31.10;29.40;;;;;;7380035;19;20373;-45
2022/05/10 11:06:21;;;;;;;4.83;4.43;;;29.60;31.40;;;;;;7382437;19;20431;-46
2022/05/10 11:09:12;;;;;;;5.67;5.07;;;29.60;32.70;;;;;;7380307;19;20368;-45
2022/05/10 11:12:00;;;;;;;5.00;4.60;;;29.30;32.80;;;;;;7381741;19;20781;-45
2022/05/10 11:14:54;;;;;;;6.90;4.30;;;28.40;33.70;;;;;;7381247;19;20452;-45
2022/05/10 11:17:37;;;;;;;4.83;4.30;;;28.60;35.10;;;;;;7381727;19;20368;-45
2022/05/10 11:20:22;;;;;;;5.83;5.20;;;28.70;33.70;;;;;;7383949;19;21905;-45
2022/05/10 11:22:57;;;;;;;5.00;4.50;;;28.00;34.30;;;;;;7379633;19;20380;-45
2022/05/10 11:25:52;;;;;;;4.23;3.57;;;28.70;33.80;;;;;;7376387;19;20372;-46
2022/05/10 11:28:41;;;;;;;5.07;4.57;;;29.20;33.20;;;;;;7373823;19;20375;-45
2022/05/10 11:31:18;;;;;;;4.50;4.10;;;29.30;33.10;;;;;;7381385;19;20469;-45
2022/05/10 11:33:58;;;;;;;7.00;4.60;;;29.80;32.80;;;;;;7379690;19;20388;-46
2022/05/10 11:36:40;;;;;;;4.97;4.53;;;30.20;32.10;;;;;;7382578;19;20896;-45
2022/05/10 11:39:34;;;;;;;5.63;4.40;;;30.10;32.70;;;;;;7381940;19;21096;-44
2022/05/10 11:42:26;;;;;;;6.50;4.30;;;28.70;33.70;;;;;;7380411;19;20387;-45
2022/05/10 11:45:20;;;;;;;5.50;4.53;;;28.60;35.00;;;;;;7379784;19;20363;-46
2022/05/10 11:48:25;;;;;;;5.23;4.30;;;29.00;33.70;;;;;;7378084;19;20380;-45
2022/05/10 11:51:42;;;;;;;5.30;4.50;;;29.50;33.20;;;;;;7379743;19;20415;-45
2022/05/10 11:54:43;;;;;;;5.50;3.93;;;30.00;32.40;;;;;;7379777;19;20493;-44
2022/05/10 11:57:19;;;;;;;5.27;3.60;;;29.90;31.20;;;;;;7380828;19;20985;-43
2022/05/10 11:59:49;;;;;;;4.07;3.70;;;29.30;31.50;;;;;;7378112;19;20451;-44
2022/05/10 12:02:48;;;;;;;6.50;4.00;;;28.80;31.90;;;;;;7378075;19;20384;-46
2022/05/10 12:05:30;;;;;;;4.23;3.83;;;27.90;33.60;;;;;;7381148;19;20372;-46
2022/05/10 12:08:03;;;;;;;4.30;4.00;;;27.60;33.40;;;;;;7378611;19;20384;-45
2022/05/10 12:10:53;;;;;;;5.30;4.27;;;27.70;34.40;;;;;;7379126;19;20380;-45
2022/05/10 12:22:11;;;;;;;4.43;4.07;;;26.60;34.70;;;;;;7381170;19;20821;-44
2022/05/10 12:24:44;;;;;;;3.70;3.37;;;26.60;34.60;;;;;;7374596;19;20380;-45
2022/05/10 12:27:39;;;;;;;3.40;3.10;;;27.10;35.00;;;;;;7379789;19;20404;-45
2022/05/10 12:30:13;;;;;;;4.30;3.90;;;27.20;34.20;;;;;;7379880;19;20380;-45
2022/05/10 12:32:49;;;;;;;3.70;3.40;;;27.20;35.00;;;;;;7378114;19;20416;-45
2022/05/10 12:35:38;;;;;;;4.67;4.20;;;27.40;34.30;;;;;;7377098;19;20379;-45
2022/05/10 12:38:34;;;;;;;5.07;4.17;;;27.60;34.60;;;;;;7369892;19;20737;-44
2022/05/10 12:41:14;;;;;;;4.37;3.97;;;27.80;34.10;;;;;;7377322;19;20380;-45
2022/05/10 12:44:29;;;;;;;3.80;3.50;;;27.80;33.30;;;;;;7377298;19;20410;-45
2022/05/10 12:47:17;;;;;;;5.47;3.90;;;28.00;33.90;;;;;;7374254;19;20438;-45
2022/05/10 12:50:07;;;;;;;4.30;3.50;;;28.20;33.40;;;;;;7373203;19;20484;-46
2022/05/10 12:52:43;;;;;;;3.93;3.63;;;28.60;32.70;;;;;;7378902;19;20388;-43
2022/05/10 12:55:19;;;;;;;11.20;4.23;;;29.00;32.40;;;;;;7377161;19;20417;-46
2022/05/10 12:57:58;;;;;;;4.50;3.23;;;29.40;31.60;;;;;;7371726;19;20380;-46
2022/05/10 13:00:33;;;;;;;4.20;3.80;;;29.70;31.20;;;;;;7376111;19;20409;-45
2022/05/10 13:03:11;;;;;;;3.47;3.17;;;29.70;31.70;;;;;;7373275;19;20482;-45
2022/05/10 13:06:08;;;;;;;3.77;3.43;;;29.70;30.20;;;;;;7367738;19;20906;-45
2022/05/10 13:09:08;;;;;;;4.63;4.23;;;30.10;30.70;;;;;;7363932;19;20375;-45
2022/05/10 13:11:47;;;;;;;5.33;3.97;;;29.70;30.60;;;;;;7371957;19;20930;-45
2022/05/10 13:14:20;;;;;;;3.77;3.40;;;30.00;29.90;;;;;;7359734;19;20372;-43
2022/05/10 13:16:54;;;;;;;4.80;3.67;;;29.90;30.20;;;;;;7341150;19;20448;-45
2022/05/10 13:19:28;;;;;;;4.77;4.30;;;29.80;30.20;;;;;;7369112;19;20767;-43
2022/05/10 13:21:58;;;;;;;4.27;3.87;;;30.00;30.20;;;;;;7374961;19;20376;-43
2022/05/10 13:24:31;;;;;;;4.10;3.80;;;29.80;30.20;;;;;;7378701;19;20372;-41
2022/05/10 13:27:02;;;;;;;4.00;3.70;;;29.70;30.70;;;;;;7371759;19;20412;-44
2022/05/10 13:29:45;;;;;;;4.70;4.30;;;29.60;31.10;;;;;;7373605;19;20379;-43
2022/05/10 13:32:31;;;;;;;4.00;3.70;;;29.40;31.10;;;;;;7364436;19;20849;-44
2022/05/10 13:35:09;;;;;;;4.63;3.50;;;29.20;31.50;;;;;;7364642;19;20400;-43
2022/05/10 13:37:43;;;;;;;4.60;3.87;;;28.90;31.90;;;;;;7369587;19;20471;-43
2022/05/10 13:40:27;;;;;;;4.93;4.20;;;28.70;32.20;;;;;;7368126;19;20447;-45
2022/05/10 13:43:08;;;;;;;4.50;4.10;;;28.30;33.30;;;;;;7367199;19;20411;-44
2022/05/10 13:45:43;;;;;;;4.37;4.00;;;28.40;33.20;;;;;;7364938;19;20385;-43